sensor_id;sensor_type;location;lat;lon;timestamp;P1;durP1;ratioP1;P2;durP2;ratioP2
4021;SDS011;2025;48.260;16.432;2022-09-02T00:01:33;0.85;;;0.80;;
4021;SDS011;2025;48.260;16.432;2022-09-02T00:04:03;1.48;;;1.00;;
4021;SDS011;2025;48.260;16.432;2022-09-02T00:06:31;3.95;;;1.10;;
4021;SDS011;2025;48.260;16.432;2022-09-02T00:09:00;1.48;;;0.80;;
4021;SDS011;2025;48.260;16.432;2022-09-02T00:11:30;6.90;;;1.65;;
4021;SDS011;2025;48.260;16.432;2022-09-02T00:14:01;0.75;;;0.75;;
4021;SDS011;2025;48.260;16.432;2022-09-02T00:16:32;3.90;;;1.00;;
4021;SDS011;2025;48.260;16.432;2022-09-02T00:19:00;1.10;;;0.80;;
4021;SDS011;2025;48.260;16.432;2022-09-02T00:21:27;3.95;;;1.00;;
4021;SDS011;2025;48.260;16.432;2022-09-02T00:23:57;2.97;;;1.00;;
4021;SDS011;2025;48.260;16.432;2022-09-02T00:26:24;1.42;;;1.08;;
4021;SDS011;2025;48.260;16.432;2022-09-02T00:28:51;2.50;;;1.00;;
4021;SDS011;2025;48.260;16.432;2022-09-02T00:31:20;2.13;;;1.05;;
4021;SDS011;2025;48.260;16.432;2022-09-02T00:33:47;1.67;;;1.08;;
4021;SDS011;2025;48.260;16.432;2022-09-02T00:36:15;3.25;;;0.93;;
4021;SDS011;2025;48.260;16.432;2022-09-02T00:38:42;0.80;;;0.80;;
4021;SDS011;2025;48.260;16.432;2022-09-02T00:41:09;1.50;;;1.08;;
4021;SDS011;2025;48.260;16.432;2022-09-02T00:43:38;4.93;;;1.02;;
4021;SDS011;2025;48.260;16.432;2022-09-02T00:46:11;1.50;;;1.00;;
4021;SDS011;2025;48.260;16.432;2022-09-02T00:48:42;0.80;;;0.70;;
4021;SDS011;2025;48.260;16.432;2022-09-02T00:51:13;1.00;;;0.90;;
4021;SDS011;2025;48.260;16.432;2022-09-02T00:53:42;0.80;;;0.80;;
4021;SDS011;2025;48.260;16.432;2022-09-02T00:56:12;1.15;;;0.82;;
4021;SDS011;2025;48.260;16.432;2022-09-02T00:58:42;2.42;;;0.90;;
4021;SDS011;2025;48.260;16.432;2022-09-02T01:01:09;1.05;;;1.00;;
4021;SDS011;2025;48.260;16.432;2022-09-02T01:03:37;1.35;;;0.90;;
4021;SDS011;2025;48.260;16.432;2022-09-02T01:06:07;3.25;;;1.10;;
4021;SDS011;2025;48.260;16.432;2022-09-02T01:08:40;1.75;;;0.90;;
4021;SDS011;2025;48.260;16.432;2022-09-02T01:11:09;1.27;;;1.00;;
4021;SDS011;2025;48.260;16.432;2022-09-02T01:13:39;1.67;;;1.00;;
4021;SDS011;2025;48.260;16.432;2022-09-02T01:16:08;0.70;;;0.70;;
4021;SDS011;2025;48.260;16.432;2022-09-02T01:18:41;1.45;;;0.90;;
4021;SDS011;2025;48.260;16.432;2022-09-02T01:21:14;3.13;;;0.77;;
4021;SDS011;2025;48.260;16.432;2022-09-02T01:23:43;1.85;;;0.90;;
4021;SDS011;2025;48.260;16.432;2022-09-02T01:26:11;2.83;;;1.00;;
4021;SDS011;2025;48.260;16.432;2022-09-02T01:28:38;1.92;;;1.05;;
4021;SDS011;2025;48.260;16.432;2022-09-02T01:31:06;1.67;;;1.02;;
4021;SDS011;2025;48.260;16.432;2022-09-02T01:33:33;1.40;;;1.00;;
4021;SDS011;2025;48.260;16.432;2022-09-02T01:36:00;1.10;;;1.00;;
4021;SDS011;2025;48.260;16.432;2022-09-02T01:38:29;4.05;;;0.93;;
4021;SDS011;2025;48.260;16.432;2022-09-02T01:40:58;2.15;;;0.90;;
4021;SDS011;2025;48.260;16.432;2022-09-02T01:43:25;1.48;;;1.02;;
4021;SDS011;2025;48.260;16.432;2022-09-02T01:45:55;2.08;;;1.10;;
4021;SDS011;2025;48.260;16.432;2022-09-02T01:48:23;1.80;;;0.90;;
4021;SDS011;2025;48.260;16.432;2022-09-02T01:50:52;2.63;;;1.15;;
4021;SDS011;2025;48.260;16.432;2022-09-02T01:53:21;2.80;;;0.98;;
4021;SDS011;2025;48.260;16.432;2022-09-02T01:55:48;3.38;;;1.05;;
4021;SDS011;2025;48.260;16.432;2022-09-02T01:58:17;3.63;;;0.80;;
4021;SDS011;2025;48.260;16.432;2022-09-02T02:00:44;2.90;;;1.05;;
4021;SDS011;2025;48.260;16.432;2022-09-02T02:03:12;1.80;;;0.93;;
4021;SDS011;2025;48.260;16.432;2022-09-02T02:05:39;3.22;;;1.00;;
4021;SDS011;2025;48.260;16.432;2022-09-02T02:08:06;1.83;;;1.05;;
4021;SDS011;2025;48.260;16.432;2022-09-02T02:10:33;0.88;;;0.88;;
4021;SDS011;2025;48.260;16.432;2022-09-02T02:13:00;0.85;;;0.85;;
4021;SDS011;2025;48.260;16.432;2022-09-02T02:15:29;1.98;;;1.00;;
4021;SDS011;2025;48.260;16.432;2022-09-02T02:17:56;2.28;;;1.00;;
4021;SDS011;2025;48.260;16.432;2022-09-02T02:20:23;7.57;;;1.33;;
4021;SDS011;2025;48.260;16.432;2022-09-02T02:22:51;3.05;;;1.00;;
4021;SDS011;2025;48.260;16.432;2022-09-02T02:25:18;2.88;;;1.10;;
4021;SDS011;2025;48.260;16.432;2022-09-02T02:27:45;2.53;;;1.20;;
4021;SDS011;2025;48.260;16.432;2022-09-02T02:30:13;1.00;;;1.00;;
4021;SDS011;2025;48.260;16.432;2022-09-02T02:32:43;6.00;;;1.10;;
4021;SDS011;2025;48.260;16.432;2022-09-02T02:35:12;1.05;;;0.90;;
4021;SDS011;2025;48.260;16.432;2022-09-02T02:37:40;1.50;;;1.05;;
4021;SDS011;2025;48.260;16.432;2022-09-02T02:40:08;1.92;;;0.90;;
4021;SDS011;2025;48.260;16.432;2022-09-02T02:42:36;2.83;;;0.95;;
4021;SDS011;2025;48.260;16.432;2022-09-02T02:45:04;1.38;;;0.90;;
4021;SDS011;2025;48.260;16.432;2022-09-02T02:47:34;2.42;;;1.20;;
4021;SDS011;2025;48.260;16.432;2022-09-02T02:50:05;3.72;;;1.00;;
4021;SDS011;2025;48.260;16.432;2022-09-02T02:52:34;2.92;;;1.10;;
4021;SDS011;2025;48.260;16.432;2022-09-02T02:55:02;0.98;;;0.90;;
4021;SDS011;2025;48.260;16.432;2022-09-02T02:57:30;1.52;;;0.98;;
4021;SDS011;2025;48.260;16.432;2022-09-02T02:59:58;1.10;;;1.00;;
4021;SDS011;2025;48.260;16.432;2022-09-02T03:02:29;2.78;;;1.25;;
4021;SDS011;2025;48.260;16.432;2022-09-02T03:04:58;1.50;;;1.10;;
4021;SDS011;2025;48.260;16.432;2022-09-02T03:07:27;1.33;;;1.10;;
4021;SDS011;2025;48.260;16.432;2022-09-02T03:09:54;1.20;;;0.98;;
4021;SDS011;2025;48.260;16.432;2022-09-02T03:12:21;1.40;;;0.80;;
4021;SDS011;2025;48.260;16.432;2022-09-02T03:14:48;5.07;;;1.88;;
4021;SDS011;2025;48.260;16.432;2022-09-02T03:17:15;2.53;;;1.00;;
4021;SDS011;2025;48.260;16.432;2022-09-02T03:19:42;1.02;;;0.98;;
4021;SDS011;2025;48.260;16.432;2022-09-02T03:22:09;3.17;;;1.38;;
4021;SDS011;2025;48.260;16.432;2022-09-02T03:24:38;3.78;;;1.17;;
4021;SDS011;2025;48.260;16.432;2022-09-02T03:27:05;0.90;;;0.90;;
4021;SDS011;2025;48.260;16.432;2022-09-02T03:29:32;2.08;;;1.13;;
4021;SDS011;2025;48.260;16.432;2022-09-02T03:31:59;2.67;;;1.15;;
4021;SDS011;2025;48.260;16.432;2022-09-02T03:34:26;1.90;;;1.33;;
4021;SDS011;2025;48.260;16.432;2022-09-02T03:36:53;2.20;;;1.17;;
4021;SDS011;2025;48.260;16.432;2022-09-02T03:39:20;1.90;;;1.30;;
4021;SDS011;2025;48.260;16.432;2022-09-02T03:41:48;4.05;;;1.23;;
4021;SDS011;2025;48.260;16.432;2022-09-02T03:44:17;1.38;;;1.27;;
4021;SDS011;2025;48.260;16.432;2022-09-02T03:46:44;1.45;;;1.20;;
4021;SDS011;2025;48.260;16.432;2022-09-02T03:49:11;2.50;;;1.10;;
4021;SDS011;2025;48.260;16.432;2022-09-02T03:51:39;3.78;;;1.35;;
4021;SDS011;2025;48.260;16.432;2022-09-02T03:54:08;3.00;;;1.13;;
4021;SDS011;2025;48.260;16.432;2022-09-02T03:56:35;3.55;;;1.05;;
4021;SDS011;2025;48.260;16.432;2022-09-02T03:59:04;2.47;;;1.38;;
4021;SDS011;2025;48.260;16.432;2022-09-02T04:01:31;5.40;;;1.55;;
4021;SDS011;2025;48.260;16.432;2022-09-02T04:03:58;4.05;;;1.10;;
4021;SDS011;2025;48.260;16.432;2022-09-02T04:06:25;2.70;;;1.30;;
4021;SDS011;2025;48.260;16.432;2022-09-02T04:08:52;1.38;;;1.23;;
4021;SDS011;2025;48.260;16.432;2022-09-02T04:11:20;1.58;;;1.42;;
4021;SDS011;2025;48.260;16.432;2022-09-02T04:13:48;2.65;;;1.55;;
4021;SDS011;2025;48.260;16.432;2022-09-02T04:16:18;5.03;;;1.40;;
4021;SDS011;2025;48.260;16.432;2022-09-02T04:18:53;2.95;;;1.13;;
4021;SDS011;2025;48.260;16.432;2022-09-02T04:21:21;1.30;;;1.20;;
4021;SDS011;2025;48.260;16.432;2022-09-02T04:23:48;2.55;;;1.30;;
4021;SDS011;2025;48.260;16.432;2022-09-02T04:26:17;1.63;;;1.25;;
4021;SDS011;2025;48.260;16.432;2022-09-02T04:28:45;2.85;;;1.25;;
4021;SDS011;2025;48.260;16.432;2022-09-02T04:31:13;1.50;;;1.33;;
4021;SDS011;2025;48.260;16.432;2022-09-02T04:33:43;4.18;;;1.33;;
4021;SDS011;2025;48.260;16.432;2022-09-02T04:36:11;9.75;;;1.38;;
4021;SDS011;2025;48.260;16.432;2022-09-02T04:38:40;7.82;;;1.23;;
4021;SDS011;2025;48.260;16.432;2022-09-02T04:41:09;1.40;;;1.30;;
4021;SDS011;2025;48.260;16.432;2022-09-02T04:43:37;1.55;;;1.40;;
4021;SDS011;2025;48.260;16.432;2022-09-02T04:46:05;3.72;;;1.52;;
4021;SDS011;2025;48.260;16.432;2022-09-02T04:48:34;1.33;;;1.23;;
4021;SDS011;2025;48.260;16.432;2022-09-02T04:51:04;5.47;;;1.80;;
4021;SDS011;2025;48.260;16.432;2022-09-02T04:53:33;2.60;;;1.30;;
4021;SDS011;2025;48.260;16.432;2022-09-02T04:56:01;3.85;;;1.40;;
4021;SDS011;2025;48.260;16.432;2022-09-02T04:58:29;1.58;;;1.30;;
4021;SDS011;2025;48.260;16.432;2022-09-02T05:00:56;2.15;;;1.42;;
4021;SDS011;2025;48.260;16.432;2022-09-02T05:03:23;1.50;;;1.40;;
4021;SDS011;2025;48.260;16.432;2022-09-02T05:05:57;1.38;;;1.27;;
4021;SDS011;2025;48.260;16.432;2022-09-02T05:08:26;3.58;;;1.50;;
4021;SDS011;2025;48.260;16.432;2022-09-02T05:10:53;3.30;;;1.15;;
4021;SDS011;2025;48.260;16.432;2022-09-02T05:13:20;4.85;;;1.60;;
4021;SDS011;2025;48.260;16.432;2022-09-02T05:15:50;1.63;;;1.50;;
4021;SDS011;2025;48.260;16.432;2022-09-02T05:18:23;5.63;;;1.73;;
4021;SDS011;2025;48.260;16.432;2022-09-02T05:20:50;4.82;;;2.17;;
4021;SDS011;2025;48.260;16.432;2022-09-02T05:23:17;1.48;;;1.35;;
4021;SDS011;2025;48.260;16.432;2022-09-02T05:25:45;2.75;;;1.50;;
4021;SDS011;2025;48.260;16.432;2022-09-02T05:28:12;4.40;;;1.50;;
4021;SDS011;2025;48.260;16.432;2022-09-02T05:30:41;4.57;;;1.67;;
4021;SDS011;2025;48.260;16.432;2022-09-02T05:33:08;5.05;;;1.83;;
4021;SDS011;2025;48.260;16.432;2022-09-02T05:35:38;3.85;;;1.75;;
4021;SDS011;2025;48.260;16.432;2022-09-02T05:38:06;3.05;;;1.33;;
4021;SDS011;2025;48.260;16.432;2022-09-02T05:40:34;1.65;;;1.48;;
4021;SDS011;2025;48.260;16.432;2022-09-02T05:43:03;3.72;;;1.60;;
4021;SDS011;2025;48.260;16.432;2022-09-02T05:45:30;1.60;;;1.50;;
4021;SDS011;2025;48.260;16.432;2022-09-02T05:47:58;1.92;;;1.55;;
4021;SDS011;2025;48.260;16.432;2022-09-02T05:50:45;9.30;;;1.45;;
4021;SDS011;2025;48.260;16.432;2022-09-02T05:53:12;7.05;;;1.60;;
4021;SDS011;2025;48.260;16.432;2022-09-02T05:55:39;4.55;;;1.55;;
4021;SDS011;2025;48.260;16.432;2022-09-02T05:58:07;1.55;;;1.45;;
4021;SDS011;2025;48.260;16.432;2022-09-02T06:00:36;6.78;;;1.80;;
4021;SDS011;2025;48.260;16.432;2022-09-02T06:03:03;2.72;;;1.52;;
4021;SDS011;2025;48.260;16.432;2022-09-02T06:05:30;1.90;;;1.70;;
4021;SDS011;2025;48.260;16.432;2022-09-02T06:07:57;5.45;;;1.50;;
4021;SDS011;2025;48.260;16.432;2022-09-02T06:10:24;2.80;;;1.75;;
4021;SDS011;2025;48.260;16.432;2022-09-02T06:12:51;1.48;;;1.38;;
4021;SDS011;2025;48.260;16.432;2022-09-02T06:15:20;1.30;;;1.23;;
4021;SDS011;2025;48.260;16.432;2022-09-02T06:17:47;7.13;;;1.67;;
4021;SDS011;2025;48.260;16.432;2022-09-02T06:20:13;2.58;;;1.50;;
4021;SDS011;2025;48.260;16.432;2022-09-02T06:22:40;1.77;;;1.50;;
4021;SDS011;2025;48.260;16.432;2022-09-02T06:25:08;2.78;;;1.70;;
4021;SDS011;2025;48.260;16.432;2022-09-02T06:27:35;5.32;;;1.67;;
4021;SDS011;2025;48.260;16.432;2022-09-02T06:30:03;1.42;;;1.33;;
4021;SDS011;2025;48.260;16.432;2022-09-02T06:32:32;2.58;;;1.60;;
4021;SDS011;2025;48.260;16.432;2022-09-02T06:34:59;3.10;;;1.48;;
4021;SDS011;2025;48.260;16.432;2022-09-02T06:37:26;5.70;;;1.40;;
4021;SDS011;2025;48.260;16.432;2022-09-02T06:39:53;2.65;;;1.70;;
4021;SDS011;2025;48.260;16.432;2022-09-02T06:42:20;5.90;;;1.67;;
4021;SDS011;2025;48.260;16.432;2022-09-02T06:44:47;1.60;;;1.50;;
4021;SDS011;2025;48.260;16.432;2022-09-02T06:47:14;3.58;;;1.50;;
4021;SDS011;2025;48.260;16.432;2022-09-02T06:49:42;3.63;;;1.42;;
4021;SDS011;2025;48.260;16.432;2022-09-02T06:52:11;2.30;;;1.77;;
4021;SDS011;2025;48.260;16.432;2022-09-02T06:54:39;3.65;;;1.67;;
4021;SDS011;2025;48.260;16.432;2022-09-02T06:57:06;2.88;;;1.60;;
4021;SDS011;2025;48.260;16.432;2022-09-02T06:59:32;3.22;;;1.52;;
4021;SDS011;2025;48.260;16.432;2022-09-02T07:02:00;3.15;;;1.40;;
4021;SDS011;2025;48.260;16.432;2022-09-02T07:04:27;1.80;;;1.50;;
4021;SDS011;2025;48.260;16.432;2022-09-02T07:07:13;2.60;;;1.50;;
4021;SDS011;2025;48.260;16.432;2022-09-02T07:09:40;1.50;;;1.40;;
4021;SDS011;2025;48.260;16.432;2022-09-02T07:12:07;2.55;;;1.48;;
4021;SDS011;2025;48.260;16.432;2022-09-02T07:14:35;2.08;;;1.35;;
4021;SDS011;2025;48.260;16.432;2022-09-02T07:17:03;5.25;;;1.55;;
4021;SDS011;2025;48.260;16.432;2022-09-02T07:19:30;2.53;;;1.33;;
4021;SDS011;2025;48.260;16.432;2022-09-02T07:21:57;2.33;;;1.50;;
4021;SDS011;2025;48.260;16.432;2022-09-02T07:24:25;5.10;;;1.50;;
4021;SDS011;2025;48.260;16.432;2022-09-02T07:26:52;3.15;;;1.40;;
4021;SDS011;2025;48.260;16.432;2022-09-02T07:29:19;2.95;;;1.60;;
4021;SDS011;2025;48.260;16.432;2022-09-02T07:31:47;3.20;;;1.98;;
4021;SDS011;2025;48.260;16.432;2022-09-02T07:34:14;2.40;;;1.50;;
4021;SDS011;2025;48.260;16.432;2022-09-02T07:36:42;4.25;;;1.58;;
4021;SDS011;2025;48.260;16.432;2022-09-02T07:39:10;2.15;;;1.58;;
4021;SDS011;2025;48.260;16.432;2022-09-02T07:41:40;5.85;;;1.50;;
4021;SDS011;2025;48.260;16.432;2022-09-02T07:44:08;3.63;;;1.25;;
4021;SDS011;2025;48.260;16.432;2022-09-02T07:46:35;1.48;;;1.23;;
4021;SDS011;2025;48.260;16.432;2022-09-02T07:49:03;3.88;;;1.48;;
4021;SDS011;2025;48.260;16.432;2022-09-02T07:51:33;6.32;;;1.30;;
4021;SDS011;2025;48.260;16.432;2022-09-02T07:54:01;2.47;;;1.60;;
4021;SDS011;2025;48.260;16.432;2022-09-02T07:56:29;2.40;;;1.50;;
4021;SDS011;2025;48.260;16.432;2022-09-02T07:58:58;4.80;;;1.70;;
4021;SDS011;2025;48.260;16.432;2022-09-02T08:01:25;2.97;;;1.70;;
4021;SDS011;2025;48.260;16.432;2022-09-02T08:03:53;2.50;;;1.77;;
4021;SDS011;2025;48.260;16.432;2022-09-02T08:06:20;2.08;;;1.52;;
4021;SDS011;2025;48.260;16.432;2022-09-02T08:08:51;1.77;;;1.52;;
4021;SDS011;2025;48.260;16.432;2022-09-02T08:11:18;7.60;;;1.70;;
4021;SDS011;2025;48.260;16.432;2022-09-02T08:13:45;5.32;;;1.30;;
4021;SDS011;2025;48.260;16.432;2022-09-02T08:16:14;3.97;;;1.50;;
4021;SDS011;2025;48.260;16.432;2022-09-02T08:18:44;1.75;;;1.65;;
4021;SDS011;2025;48.260;16.432;2022-09-02T08:21:12;1.83;;;1.60;;
4021;SDS011;2025;48.260;16.432;2022-09-02T08:23:39;3.00;;;1.52;;
4021;SDS011;2025;48.260;16.432;2022-09-02T08:26:08;2.13;;;1.65;;
4021;SDS011;2025;48.260;16.432;2022-09-02T08:28:35;1.92;;;1.83;;
4021;SDS011;2025;48.260;16.432;2022-09-02T08:31:04;1.20;;;1.10;;
4021;SDS011;2025;48.260;16.432;2022-09-02T08:33:33;3.83;;;1.40;;
4021;SDS011;2025;48.260;16.432;2022-09-02T08:36:01;1.80;;;1.70;;
4021;SDS011;2025;48.260;16.432;2022-09-02T08:38:29;1.73;;;1.55;;
4021;SDS011;2025;48.260;16.432;2022-09-02T08:40:56;2.28;;;1.60;;
4021;SDS011;2025;48.260;16.432;2022-09-02T08:43:26;3.75;;;1.45;;
4021;SDS011;2025;48.260;16.432;2022-09-02T08:45:57;1.77;;;1.23;;
4021;SDS011;2025;48.260;16.432;2022-09-02T08:48:31;1.80;;;1.33;;
4021;SDS011;2025;48.260;16.432;2022-09-02T08:51:06;3.90;;;1.45;;
4021;SDS011;2025;48.260;16.432;2022-09-02T08:53:36;3.33;;;1.40;;
4021;SDS011;2025;48.260;16.432;2022-09-02T08:56:10;3.05;;;1.50;;
4021;SDS011;2025;48.260;16.432;2022-09-02T08:58:44;2.13;;;1.45;;
4021;SDS011;2025;48.260;16.432;2022-09-02T09:01:17;4.03;;;1.45;;
4021;SDS011;2025;48.260;16.432;2022-09-02T09:04:02;1.58;;;1.48;;
4021;SDS011;2025;48.260;16.432;2022-09-02T09:06:39;4.20;;;1.70;;
4021;SDS011;2025;48.260;16.432;2022-09-02T09:09:16;2.20;;;1.65;;
4021;SDS011;2025;48.260;16.432;2022-09-02T09:11:54;1.27;;;1.20;;
4021;SDS011;2025;48.260;16.432;2022-09-02T09:14:30;2.90;;;1.45;;
4021;SDS011;2025;48.260;16.432;2022-09-02T09:17:08;3.15;;;1.40;;
4021;SDS011;2025;48.260;16.432;2022-09-02T09:19:47;2.22;;;1.30;;
4021;SDS011;2025;48.260;16.432;2022-09-02T09:22:18;3.33;;;1.30;;
4021;SDS011;2025;48.260;16.432;2022-09-02T09:24:46;3.70;;;1.52;;
4021;SDS011;2025;48.260;16.432;2022-09-02T09:27:16;1.75;;;1.65;;
4021;SDS011;2025;48.260;16.432;2022-09-02T09:29:44;1.33;;;1.23;;
4021;SDS011;2025;48.260;16.432;2022-09-02T09:32:14;3.55;;;1.50;;
4021;SDS011;2025;48.260;16.432;2022-09-02T09:34:57;6.10;;;1.13;;
4021;SDS011;2025;48.260;16.432;2022-09-02T09:37:28;4.35;;;1.42;;
4021;SDS011;2025;48.260;16.432;2022-09-02T09:39:58;3.25;;;1.10;;
4021;SDS011;2025;48.260;16.432;2022-09-02T09:42:29;2.88;;;1.10;;
4021;SDS011;2025;48.260;16.432;2022-09-02T09:44:58;5.38;;;1.27;;
4021;SDS011;2025;48.260;16.432;2022-09-02T09:47:25;1.60;;;1.13;;
4021;SDS011;2025;48.260;16.432;2022-09-02T09:50:09;4.35;;;1.00;;
4021;SDS011;2025;48.260;16.432;2022-09-02T09:52:38;1.25;;;1.15;;
4021;SDS011;2025;48.260;16.432;2022-09-02T09:55:10;10.18;;;1.42;;
4021;SDS011;2025;48.260;16.432;2022-09-02T09:57:40;2.28;;;1.20;;
4021;SDS011;2025;48.260;16.432;2022-09-02T10:00:12;1.95;;;0.98;;
4021;SDS011;2025;48.260;16.432;2022-09-02T10:02:47;4.32;;;1.05;;
4021;SDS011;2025;48.260;16.432;2022-09-02T10:05:21;1.48;;;0.90;;
4021;SDS011;2025;48.260;16.432;2022-09-02T10:07:56;1.80;;;1.10;;
4021;SDS011;2025;48.260;16.432;2022-09-02T10:10:25;4.32;;;1.10;;
4021;SDS011;2025;48.260;16.432;2022-09-02T10:12:55;1.08;;;0.98;;
4021;SDS011;2025;48.260;16.432;2022-09-02T10:15:29;0.90;;;0.90;;
4021;SDS011;2025;48.260;16.432;2022-09-02T10:18:14;1.10;;;0.88;;
4021;SDS011;2025;48.260;16.432;2022-09-02T10:20:51;4.90;;;0.82;;
4021;SDS011;2025;48.260;16.432;2022-09-02T10:23:31;6.50;;;1.00;;
4021;SDS011;2025;48.260;16.432;2022-09-02T10:26:15;2.08;;;1.08;;
4021;SDS011;2025;48.260;16.432;2022-09-02T10:32:01;3.88;;;1.02;;
4021;SDS011;2025;48.260;16.432;2022-09-02T10:34:42;7.47;;;1.10;;
4021;SDS011;2025;48.260;16.432;2022-09-02T10:37:19;6.00;;;1.25;;
4021;SDS011;2025;48.260;16.432;2022-09-02T10:39:52;4.18;;;1.00;;
4021;SDS011;2025;48.260;16.432;2022-09-02T10:42:38;1.85;;;0.95;;
4021;SDS011;2025;48.260;16.432;2022-09-02T10:45:14;2.72;;;1.10;;
4021;SDS011;2025;48.260;16.432;2022-09-02T10:47:49;3.78;;;1.50;;
4021;SDS011;2025;48.260;16.432;2022-09-02T10:50:25;1.15;;;0.57;;
4021;SDS011;2025;48.260;16.432;2022-09-02T10:53:07;2.67;;;0.85;;
4021;SDS011;2025;48.260;16.432;2022-09-02T10:55:48;1.67;;;0.93;;
4021;SDS011;2025;48.260;16.432;2022-09-02T10:58:24;5.78;;;0.93;;
4021;SDS011;2025;48.260;16.432;2022-09-02T11:01:07;2.58;;;0.80;;
4021;SDS011;2025;48.260;16.432;2022-09-02T11:03:39;2.35;;;1.10;;
4021;SDS011;2025;48.260;16.432;2022-09-02T11:06:17;10.02;;;1.10;;
4021;SDS011;2025;48.260;16.432;2022-09-02T11:08:48;1.60;;;0.82;;
4021;SDS011;2025;48.260;16.432;2022-09-02T11:11:19;1.63;;;0.90;;
4021;SDS011;2025;48.260;16.432;2022-09-02T11:16:23;3.13;;;0.80;;
4021;SDS011;2025;48.260;16.432;2022-09-02T11:18:57;1.25;;;0.75;;
4021;SDS011;2025;48.260;16.432;2022-09-02T11:21:33;3.03;;;0.85;;
4021;SDS011;2025;48.260;16.432;2022-09-02T11:24:09;3.22;;;0.80;;
4021;SDS011;2025;48.260;16.432;2022-09-02T11:26:41;3.80;;;1.02;;
4021;SDS011;2025;48.260;16.432;2022-09-02T11:29:15;2.55;;;0.90;;
4021;SDS011;2025;48.260;16.432;2022-09-02T11:31:47;0.80;;;0.80;;
4021;SDS011;2025;48.260;16.432;2022-09-02T11:34:25;3.78;;;0.88;;
4021;SDS011;2025;48.260;16.432;2022-09-02T11:37:00;1.55;;;0.90;;
4021;SDS011;2025;48.260;16.432;2022-09-02T11:39:31;3.50;;;1.00;;
4021;SDS011;2025;48.260;16.432;2022-09-02T11:42:05;3.80;;;1.10;;
4021;SDS011;2025;48.260;16.432;2022-09-02T11:44:49;3.15;;;1.00;;
4021;SDS011;2025;48.260;16.432;2022-09-02T11:47:41;1.73;;;0.90;;
4021;SDS011;2025;48.260;16.432;2022-09-02T11:50:27;4.65;;;1.20;;
4021;SDS011;2025;48.260;16.432;2022-09-02T11:53:16;3.35;;;0.77;;
4021;SDS011;2025;48.260;16.432;2022-09-02T11:55:50;1.15;;;1.05;;
4021;SDS011;2025;48.260;16.432;2022-09-02T11:58:31;1.50;;;1.02;;
4021;SDS011;2025;48.260;16.432;2022-09-02T12:01:03;3.22;;;1.38;;
4021;SDS011;2025;48.260;16.432;2022-09-02T12:03:55;3.47;;;1.02;;
4021;SDS011;2025;48.260;16.432;2022-09-02T12:06:26;7.80;;;1.10;;
4021;SDS011;2025;48.260;16.432;2022-09-02T12:08:58;1.00;;;1.00;;
4021;SDS011;2025;48.260;16.432;2022-09-02T12:11:36;1.20;;;0.88;;
4021;SDS011;2025;48.260;16.432;2022-09-02T12:14:09;1.27;;;1.10;;
4021;SDS011;2025;48.260;16.432;2022-09-02T12:16:58;2.92;;;0.80;;
4021;SDS011;2025;48.260;16.432;2022-09-02T12:19:39;1.15;;;0.88;;
4021;SDS011;2025;48.260;16.432;2022-09-02T12:22:22;1.50;;;0.90;;
4021;SDS011;2025;48.260;16.432;2022-09-02T12:24:55;1.40;;;1.10;;
4021;SDS011;2025;48.260;16.432;2022-09-02T12:27:28;5.82;;;0.98;;
4021;SDS011;2025;48.260;16.432;2022-09-02T12:30:14;3.47;;;1.08;;
4021;SDS011;2025;48.260;16.432;2022-09-02T12:33:27;7.60;;;0.95;;
4021;SDS011;2025;48.260;16.432;2022-09-02T12:36:02;3.08;;;0.90;;
4021;SDS011;2025;48.260;16.432;2022-09-02T12:38:33;0.80;;;0.80;;
4021;SDS011;2025;48.260;16.432;2022-09-02T12:44:04;5.57;;;1.13;;
4021;SDS011;2025;48.260;16.432;2022-09-02T12:46:52;4.07;;;0.88;;
4021;SDS011;2025;48.260;16.432;2022-09-02T12:49:35;2.17;;;0.80;;
4021;SDS011;2025;48.260;16.432;2022-09-02T12:52:37;3.33;;;1.10;;
4021;SDS011;2025;48.260;16.432;2022-09-02T12:55:07;1.00;;;0.80;;
4021;SDS011;2025;48.260;16.432;2022-09-02T12:57:41;3.72;;;0.90;;
4021;SDS011;2025;48.260;16.432;2022-09-02T13:00:13;6.43;;;1.02;;
4021;SDS011;2025;48.260;16.432;2022-09-02T13:02:46;4.78;;;1.00;;
4021;SDS011;2025;48.260;16.432;2022-09-02T13:05:23;3.55;;;1.00;;
4021;SDS011;2025;48.260;16.432;2022-09-02T13:08:17;4.25;;;0.93;;
4021;SDS011;2025;48.260;16.432;2022-09-02T13:17:32;4.45;;;0.80;;
4021;SDS011;2025;48.260;16.432;2022-09-02T13:23:26;2.40;;;1.00;;
4021;SDS011;2025;48.260;16.432;2022-09-02T13:26:15;3.47;;;1.00;;
4021;SDS011;2025;48.260;16.432;2022-09-02T13:29:09;2.10;;;0.90;;
4021;SDS011;2025;48.260;16.432;2022-09-02T13:32:10;5.93;;;1.10;;
4021;SDS011;2025;48.260;16.432;2022-09-02T13:34:42;5.07;;;0.80;;
4021;SDS011;2025;48.260;16.432;2022-09-02T13:37:27;1.17;;;1.05;;
4021;SDS011;2025;48.260;16.432;2022-09-02T13:39:55;3.13;;;0.90;;
4021;SDS011;2025;48.260;16.432;2022-09-02T13:42:23;1.17;;;0.90;;
4021;SDS011;2025;48.260;16.432;2022-09-02T13:47:39;4.35;;;1.10;;
4021;SDS011;2025;48.260;16.432;2022-09-02T13:50:09;4.07;;;0.98;;
4021;SDS011;2025;48.260;16.432;2022-09-02T13:52:39;2.92;;;0.70;;
4021;SDS011;2025;48.260;16.432;2022-09-02T13:55:08;5.60;;;0.90;;
4021;SDS011;2025;48.260;16.432;2022-09-02T13:57:38;4.15;;;1.05;;
4021;SDS011;2025;48.260;16.432;2022-09-02T14:00:12;1.67;;;1.02;;
4021;SDS011;2025;48.260;16.432;2022-09-02T14:02:41;2.85;;;0.95;;
4021;SDS011;2025;48.260;16.432;2022-09-02T14:05:23;4.57;;;1.10;;
4021;SDS011;2025;48.260;16.432;2022-09-02T14:07:52;6.00;;;1.20;;
4021;SDS011;2025;48.260;16.432;2022-09-02T14:10:23;5.63;;;1.15;;
4021;SDS011;2025;48.260;16.432;2022-09-02T14:12:52;2.83;;;1.00;;
4021;SDS011;2025;48.260;16.432;2022-09-02T14:15:25;4.43;;;0.93;;
4021;SDS011;2025;48.260;16.432;2022-09-02T14:18:06;4.13;;;0.95;;
4021;SDS011;2025;48.260;16.432;2022-09-02T14:20:35;3.20;;;1.05;;
4021;SDS011;2025;48.260;16.432;2022-09-02T14:23:03;1.15;;;1.05;;
4021;SDS011;2025;48.260;16.432;2022-09-02T14:25:32;1.08;;;0.98;;
4021;SDS011;2025;48.260;16.432;2022-09-02T14:28:05;3.05;;;0.82;;
4021;SDS011;2025;48.260;16.432;2022-09-02T14:30:38;2.53;;;1.15;;
4021;SDS011;2025;48.260;16.432;2022-09-02T14:33:23;11.05;;;1.10;;
4021;SDS011;2025;48.260;16.432;2022-09-02T14:35:57;2.00;;;1.00;;
4021;SDS011;2025;48.260;16.432;2022-09-02T14:38:26;2.63;;;1.17;;
4021;SDS011;2025;48.260;16.432;2022-09-02T14:41:02;2.80;;;0.93;;
4021;SDS011;2025;48.260;16.432;2022-09-02T14:43:34;3.28;;;1.00;;
4021;SDS011;2025;48.260;16.432;2022-09-02T14:46:13;1.92;;;1.23;;
4021;SDS011;2025;48.260;16.432;2022-09-02T14:48:51;3.95;;;0.88;;
4021;SDS011;2025;48.260;16.432;2022-09-02T14:51:30;3.35;;;1.00;;
4021;SDS011;2025;48.260;16.432;2022-09-02T14:54:01;1.10;;;0.90;;
4021;SDS011;2025;48.260;16.432;2022-09-02T14:56:45;1.35;;;0.98;;
4021;SDS011;2025;48.260;16.432;2022-09-02T14:59:13;1.92;;;0.85;;
4021;SDS011;2025;48.260;16.432;2022-09-02T15:01:41;6.18;;;1.10;;
4021;SDS011;2025;48.260;16.432;2022-09-02T15:04:12;0.98;;;0.90;;
4021;SDS011;2025;48.260;16.432;2022-09-02T15:06:41;2.75;;;0.80;;
4021;SDS011;2025;48.260;16.432;2022-09-02T15:09:08;3.22;;;0.90;;
4021;SDS011;2025;48.260;16.432;2022-09-02T15:11:35;2.45;;;1.13;;
4021;SDS011;2025;48.260;16.432;2022-09-02T15:14:04;1.88;;;0.90;;
4021;SDS011;2025;48.260;16.432;2022-09-02T15:16:31;1.52;;;1.02;;
4021;SDS011;2025;48.260;16.432;2022-09-02T15:18:58;7.03;;;0.90;;
4021;SDS011;2025;48.260;16.432;2022-09-02T15:21:25;0.98;;;0.88;;
4021;SDS011;2025;48.260;16.432;2022-09-02T15:23:54;1.13;;;1.02;;
4021;SDS011;2025;48.260;16.432;2022-09-02T15:26:21;6.38;;;1.00;;
4021;SDS011;2025;48.260;16.432;2022-09-02T15:28:48;6.63;;;1.00;;
4021;SDS011;2025;48.260;16.432;2022-09-02T15:31:16;1.27;;;0.80;;
4021;SDS011;2025;48.260;16.432;2022-09-02T15:33:52;4.78;;;0.90;;
4021;SDS011;2025;48.260;16.432;2022-09-02T15:36:19;2.45;;;0.90;;
4021;SDS011;2025;48.260;16.432;2022-09-02T15:38:48;3.85;;;1.00;;
4021;SDS011;2025;48.260;16.432;2022-09-02T15:41:17;5.05;;;1.05;;
4021;SDS011;2025;48.260;16.432;2022-09-02T15:43:45;2.70;;;0.70;;
4021;SDS011;2025;48.260;16.432;2022-09-02T15:46:17;1.27;;;0.90;;